createdAt,value
2018-11-14T00:00:23.593Z,9.40
2018-11-14T00:02:52.681Z,9.40
2018-11-14T00:05:21.733Z,9.30
2018-11-14T00:07:50.875Z,9.30
2018-11-14T00:10:20.358Z,9.20
2018-11-14T00:12:48.969Z,9.20
2018-11-14T00:15:19.161Z,9.20
2018-11-14T00:17:48.850Z,9.10
2018-11-14T00:20:17.994Z,9.10
2018-11-14T00:22:48.190Z,9.10
2018-11-14T00:25:17.317Z,9.00
2018-11-14T00:27:46.484Z,9.00
2018-11-14T00:30:19.314Z,9.00
2018-11-14T00:32:47.973Z,8.90
2018-11-14T00:35:17.048Z,8.90
2018-11-14T00:37:46.649Z,8.80
2018-11-14T00:40:16.437Z,8.80
2018-11-14T00:42:46.253Z,8.80
2018-11-14T00:45:20.473Z,8.70
2018-11-14T00:47:49.948Z,8.70
2018-11-14T00:50:19.493Z,8.70
2018-11-14T00:52:48.684Z,8.70
2018-11-14T00:55:19.097Z,8.60
2018-11-14T00:57:49.197Z,8.60
2018-11-14T01:00:22.414Z,8.60
2018-11-14T01:02:51.408Z,8.60
2018-11-14T01:05:20.934Z,8.50
2018-11-14T01:07:50.112Z,8.50
2018-11-14T01:10:20.504Z,8.50
2018-11-14T01:12:50.140Z,8.50
2018-11-14T01:15:20.454Z,8.50
2018-11-14T01:17:49.567Z,8.50
2018-11-14T01:20:19.997Z,8.50
2018-11-14T01:22:49.269Z,8.40
2018-11-14T01:25:19.090Z,8.40
2018-11-14T01:27:48.103Z,8.40
2018-11-14T01:30:18.808Z,8.40
2018-11-14T01:32:48.416Z,8.40
2018-11-14T01:35:17.912Z,8.40
2018-11-14T01:37:46.933Z,8.50
2018-11-14T01:40:21.832Z,8.50
2018-11-14T01:42:52.278Z,8.40
2018-11-14T01:45:21.576Z,8.40
2018-11-14T01:47:50.662Z,8.40
2018-11-14T01:50:19.752Z,8.50
2018-11-14T01:52:48.790Z,8.40
2018-11-14T01:55:19.099Z,8.40
2018-11-14T01:57:48.197Z,8.40
2018-11-14T02:00:19.592Z,8.40
2018-11-14T02:02:48.650Z,8.40
2018-11-14T02:05:17.734Z,8.40
2018-11-14T02:07:46.799Z,8.40
2018-11-14T02:10:17.131Z,8.30
2018-11-14T02:12:46.554Z,8.30
2018-11-14T02:15:21.494Z,8.30
2018-11-14T02:17:50.757Z,8.30
2018-11-14T02:20:19.794Z,8.30
2018-11-14T02:22:48.873Z,8.30
2018-11-14T02:25:18.294Z,8.20
2018-11-14T02:27:47.286Z,8.20
2018-11-14T02:30:20.357Z,8.20
2018-11-14T02:32:49.421Z,8.20
2018-11-14T02:35:18.690Z,8.20
2018-11-14T02:37:48.237Z,8.10
2018-11-14T02:40:18.489Z,8.10
2018-11-14T02:42:47.558Z,8.10
2018-11-14T02:45:16.781Z,8.10
2018-11-14T02:47:45.850Z,8.00
2018-11-14T02:50:16.109Z,8.00
2018-11-14T02:52:45.175Z,8.00
2018-11-14T02:55:15.325Z,7.90
2018-11-14T02:57:44.818Z,7.90
2018-11-14T03:00:15.726Z,7.90
2018-11-14T03:02:44.805Z,7.90
2018-11-14T03:05:13.877Z,7.90
2018-11-14T03:07:42.979Z,7.80
2018-11-14T03:10:15.140Z,7.80
2018-11-14T03:12:44.223Z,7.80
2018-11-14T03:15:15.366Z,7.80
2018-11-14T03:17:44.400Z,7.80
2018-11-14T03:20:14.922Z,7.80
2018-11-14T03:22:43.942Z,7.80
2018-11-14T03:25:13.751Z,7.70
2018-11-14T03:27:42.888Z,7.70
2018-11-14T03:30:15.743Z,7.70
2018-11-14T03:32:45.217Z,7.70
2018-11-14T03:35:14.852Z,7.70
2018-11-14T03:37:43.943Z,7.70
2018-11-14T03:40:14.361Z,7.60
2018-11-14T03:42:43.567Z,7.60
2018-11-14T03:45:13.797Z,7.60
2018-11-14T03:47:43.059Z,7.60
2018-11-14T03:50:12.193Z,7.60
2018-11-14T03:52:41.175Z,7.60
2018-11-14T03:55:10.319Z,7.60
2018-11-14T03:57:39.348Z,7.50
2018-11-14T04:00:10.592Z,7.50
2018-11-14T04:02:39.815Z,7.50
2018-11-14T04:05:09.189Z,7.50
2018-11-14T04:07:38.521Z,7.50
2018-11-14T04:10:08.922Z,7.50
2018-11-14T04:12:38.366Z,7.40
2018-11-14T04:15:08.537Z,7.40
2018-11-14T04:17:38.067Z,7.40
2018-11-14T04:20:09.119Z,7.40
2018-11-14T04:22:38.207Z,7.40
2018-11-14T04:25:09.106Z,7.30
2018-11-14T04:27:38.245Z,7.30
2018-11-14T04:30:09.553Z,7.30
2018-11-14T04:32:38.608Z,7.30
2018-11-14T04:35:09.071Z,7.30
2018-11-14T04:37:38.202Z,7.30
2018-11-14T04:40:09.234Z,7.30
2018-11-14T04:42:38.543Z,7.20
2018-11-14T04:45:09.649Z,7.20
2018-11-14T04:47:38.737Z,7.20
2018-11-14T04:50:18.001Z,7.20
2018-11-14T04:52:47.800Z,7.20
2018-11-14T04:57:50.415Z,7.20
2018-11-14T05:00:20.608Z,7.20
2018-11-14T05:02:50.070Z,7.20
2018-11-14T05:08:52.658Z,7.10
2018-11-14T05:11:21.720Z,7.10
2018-11-14T05:13:50.868Z,7.00
2018-11-14T05:16:19.911Z,7.00
2018-11-14T05:18:48.890Z,7.00
2018-11-14T05:21:17.878Z,7.00
2018-11-14T05:23:46.906Z,7.00
2018-11-14T05:26:15.930Z,7.00
2018-11-14T05:28:45.014Z,7.00
2018-11-14T05:31:14.076Z,7.00
2018-11-14T05:33:43.224Z,7.00
2018-11-14T05:36:12.367Z,7.00
2018-11-14T05:38:41.466Z,7.00
2018-11-14T05:41:10.538Z,7.00
2018-11-14T05:43:39.586Z,7.00
2018-11-14T05:46:08.650Z,7.00
2018-11-14T05:48:37.774Z,6.90
2018-11-14T05:51:06.862Z,6.90
2018-11-14T05:53:35.845Z,6.90
2018-11-14T05:56:04.992Z,6.90
2018-11-14T05:58:34.047Z,6.90
2018-11-14T06:01:03.144Z,6.90
2018-11-14T06:03:32.202Z,6.90
2018-11-14T06:06:01.226Z,6.90
2018-11-14T06:08:30.326Z,6.90
2018-11-14T06:10:59.288Z,6.90
2018-11-14T06:13:28.402Z,6.90
2018-11-14T06:15:57.402Z,6.90
2018-11-14T06:18:26.386Z,6.90
2018-11-14T06:20:55.486Z,6.90
2018-11-14T06:23:24.621Z,6.90
2018-11-14T06:25:53.602Z,6.90
2018-11-14T06:28:22.734Z,6.90
2018-11-14T06:30:51.743Z,6.90
2018-11-14T06:33:20.852Z,6.90
2018-11-14T06:35:49.897Z,6.90
2018-11-14T06:38:19.071Z,6.90
2018-11-14T06:40:48.115Z,6.90
2018-11-14T06:43:17.101Z,6.90
2018-11-14T06:45:46.114Z,6.90
2018-11-14T06:48:15.212Z,7.00
2018-11-14T06:50:44.397Z,7.00
2018-11-14T06:53:13.485Z,7.00
2018-11-14T06:55:42.486Z,6.90
2018-11-14T06:58:11.623Z,7.00
2018-11-14T07:00:40.689Z,6.90
2018-11-14T07:03:09.836Z,6.90
2018-11-14T07:05:38.930Z,6.90
2018-11-14T07:08:07.999Z,6.90
2018-11-14T07:10:37.586Z,6.90
2018-11-14T07:13:08.821Z,6.90
2018-11-14T07:15:38.527Z,6.90
2018-11-14T07:18:08.532Z,6.90
2018-11-14T07:20:39.087Z,6.90
2018-11-14T07:23:08.148Z,7.00
2018-11-14T07:25:37.229Z,7.00
2018-11-14T07:28:06.445Z,7.00
2018-11-14T07:30:35.964Z,7.00
2018-11-14T07:33:06.610Z,7.00
2018-11-14T07:35:35.797Z,7.00
2018-11-14T07:38:49.330Z,7.00
2018-11-14T07:41:20.141Z,7.10
2018-11-14T07:43:49.346Z,7.10
2018-11-14T07:46:18.665Z,7.10
2018-11-14T07:48:48.778Z,7.10
2018-11-14T07:51:17.999Z,7.10
2018-11-14T07:53:47.084Z,7.20
2018-11-14T07:56:16.127Z,7.20
2018-11-14T07:58:45.161Z,7.30
2018-11-14T08:01:14.491Z,7.30
2018-11-14T08:03:43.753Z,7.40
2018-11-14T08:06:12.833Z,7.40
2018-11-14T08:08:42.153Z,7.50
2018-11-14T08:11:11.305Z,7.50
2018-11-14T08:13:41.761Z,7.60
2018-11-14T08:16:10.802Z,7.60
2018-11-14T08:18:40.663Z,7.70
2018-11-14T08:21:09.995Z,7.70
2018-11-14T08:23:39.069Z,7.80
2018-11-14T08:26:08.073Z,7.80
2018-11-14T08:28:37.220Z,7.80
2018-11-14T08:31:06.380Z,7.90
2018-11-14T08:33:35.438Z,8.00
2018-11-14T08:36:04.437Z,8.00
2018-11-14T08:38:33.490Z,8.10
2018-11-14T08:41:02.517Z,8.10
2018-11-14T08:43:31.581Z,8.20
2018-11-14T08:46:00.641Z,8.30
2018-11-14T08:48:29.889Z,8.30
2018-11-14T08:50:58.957Z,8.30
2018-11-14T08:53:28.037Z,8.40
2018-11-14T08:55:57.057Z,8.40
2018-11-14T08:58:26.097Z,8.50
2018-11-14T09:00:55.111Z,8.50
2018-11-14T09:03:24.202Z,8.60
2018-11-14T09:05:53.325Z,8.60
2018-11-14T09:08:22.383Z,8.70
2018-11-14T09:10:51.525Z,8.70
2018-11-14T09:13:20.561Z,8.80
2018-11-14T09:15:49.592Z,8.80
2018-11-14T09:18:18.972Z,8.90
2018-11-14T09:20:48.078Z,9.00
2018-11-14T09:23:17.156Z,9.00
2018-11-14T09:25:46.335Z,9.10
2018-11-14T09:28:15.466Z,9.20
2018-11-14T09:30:44.602Z,9.30
2018-11-14T09:33:13.653Z,9.40
2018-11-14T09:35:42.718Z,9.40
2018-11-14T09:38:11.726Z,9.50
2018-11-14T09:40:40.850Z,9.60
2018-11-14T09:43:09.934Z,9.70
2018-11-14T09:45:39.034Z,9.80
2018-11-14T09:48:08.127Z,9.80
2018-11-14T09:50:37.254Z,9.90
2018-11-14T09:53:06.651Z,10.00
2018-11-14T09:55:36.299Z,10.10
2018-11-14T09:58:05.410Z,10.10
2018-11-14T10:00:35.193Z,10.20
2018-11-14T10:03:10.210Z,10.30
2018-11-14T10:05:39.265Z,10.30
2018-11-14T10:08:08.369Z,10.40
2018-11-14T10:10:37.474Z,10.40
2018-11-14T10:13:06.717Z,10.50
2018-11-14T10:15:35.857Z,10.60
2018-11-14T10:18:05.033Z,10.70
2018-11-14T10:20:34.167Z,10.70
2018-11-14T10:23:03.223Z,10.80
2018-11-14T10:25:32.265Z,10.90
2018-11-14T10:28:01.404Z,10.90
2018-11-14T10:30:30.638Z,11.00
2018-11-14T10:32:59.761Z,11.10
2018-11-14T10:35:28.801Z,11.10
2018-11-14T10:37:57.910Z,11.20
2018-11-14T10:40:28.251Z,11.20
2018-11-14T10:42:57.334Z,11.30
2018-11-14T10:45:27.237Z,11.40
2018-11-14T10:47:56.310Z,11.40
2018-11-14T10:50:26.607Z,11.50
2018-11-14T10:52:55.832Z,11.50
2018-11-14T10:55:25.033Z,11.50
2018-11-14T10:57:54.376Z,11.60
2018-11-14T11:00:30.099Z,11.70
2018-11-14T11:03:05.516Z,11.70
2018-11-14T11:05:39.977Z,11.70
2018-11-14T11:08:14.567Z,11.80
2018-11-14T11:11:23.328Z,11.80
2018-11-14T11:14:07.831Z,11.80
2018-11-14T11:16:41.080Z,11.80
2018-11-14T11:19:10.078Z,11.80
2018-11-14T11:21:39.161Z,11.90
2018-11-14T11:24:08.250Z,11.90
2018-11-14T11:26:37.625Z,12.00
2018-11-14T11:29:09.212Z,12.00
2018-11-14T11:31:38.518Z,12.00
2018-11-14T11:34:08.394Z,12.00
2018-11-14T11:36:37.691Z,12.10
2018-11-14T11:39:10.820Z,12.10
2018-11-14T11:41:40.265Z,12.20
2018-11-14T11:44:09.290Z,12.30
2018-11-14T11:46:39.138Z,12.40
2018-11-14T11:49:08.230Z,12.50
2018-11-14T11:51:37.342Z,12.50
2018-11-14T11:54:07.016Z,12.60
2018-11-14T11:56:36.284Z,12.70
2018-11-14T11:59:06.169Z,12.70
2018-11-14T12:01:35.519Z,12.80
2018-11-14T12:04:04.694Z,12.80
2018-11-14T12:06:33.919Z,12.90
2018-11-14T12:09:02.922Z,13.00
2018-11-14T12:11:32.028Z,13.00
2018-11-14T12:14:01.089Z,13.00
2018-11-14T12:16:30.085Z,13.00
2018-11-14T12:18:59.320Z,13.00
2018-11-14T12:21:28.410Z,13.00
2018-11-14T12:23:57.598Z,13.00
2018-11-14T12:26:26.684Z,13.10
2018-11-14T12:28:55.786Z,13.20
2018-11-14T12:31:24.886Z,13.20
2018-11-14T12:33:54.005Z,13.20
2018-11-14T12:36:23.242Z,13.20
2018-11-14T12:38:52.290Z,13.30
2018-11-14T12:41:21.576Z,13.30
2018-11-14T12:43:50.745Z,13.40
2018-11-14T12:46:19.805Z,13.40
2018-11-14T12:48:48.889Z,13.40
2018-11-14T12:51:17.974Z,13.50
2018-11-14T12:53:47.057Z,13.50
2018-11-14T12:56:16.062Z,13.60
2018-11-14T12:58:45.122Z,13.60
2018-11-14T13:01:14.254Z,13.70
2018-11-14T13:03:43.311Z,13.70
2018-11-14T13:06:12.310Z,13.70
2018-11-14T13:08:41.602Z,13.80
2018-11-14T13:11:10.626Z,13.80
2018-11-14T13:13:46.559Z,13.80
2018-11-14T13:16:16.590Z,13.80
2018-11-14T13:18:45.705Z,13.90
2018-11-14T13:21:14.965Z,13.90
2018-11-14T13:23:44.109Z,13.90
2018-11-14T13:26:13.197Z,14.00
2018-11-14T13:28:42.419Z,14.10
2018-11-14T13:31:11.526Z,14.10
2018-11-14T13:33:40.647Z,14.10
2018-11-14T13:36:09.736Z,14.10
2018-11-14T13:38:38.749Z,14.20
2018-11-14T13:41:07.849Z,14.10
2018-11-14T13:43:36.961Z,14.20
2018-11-14T13:46:06.083Z,14.20
2018-11-14T13:48:35.119Z,14.20
2018-11-14T13:51:04.517Z,14.20
2018-11-14T13:53:33.481Z,14.20
2018-11-14T13:56:02.493Z,14.20
2018-11-14T13:58:31.477Z,14.20
2018-11-14T14:01:00.506Z,14.20
2018-11-14T14:03:29.621Z,14.20
2018-11-14T14:05:58.757Z,14.20
2018-11-14T14:08:27.817Z,14.20
2018-11-14T14:10:56.922Z,14.20
2018-11-14T14:13:25.935Z,14.20
2018-11-14T14:15:55.033Z,14.20
2018-11-14T14:18:25.157Z,14.20
2018-11-14T14:20:54.297Z,14.20
2018-11-14T14:23:23.389Z,14.20
2018-11-14T14:25:52.547Z,14.10
2018-11-14T14:28:21.687Z,14.10
2018-11-14T14:30:50.724Z,14.10
2018-11-14T14:33:19.897Z,14.00
2018-11-14T14:35:49.043Z,14.00
2018-11-14T14:38:19.107Z,14.00
2018-11-14T14:40:48.173Z,13.90
2018-11-14T14:43:17.386Z,13.90
2018-11-14T14:45:46.448Z,13.90
2018-11-14T14:48:15.505Z,13.80
2018-11-14T14:50:44.591Z,13.80
2018-11-14T14:53:13.768Z,13.80
2018-11-14T14:55:42.809Z,13.70
2018-11-14T14:58:11.856Z,13.70
2018-11-14T15:00:40.929Z,13.60
2018-11-14T15:03:10.072Z,13.60
2018-11-14T15:05:39.326Z,13.60
2018-11-14T15:08:08.348Z,13.60
2018-11-14T15:10:37.479Z,13.50
2018-11-14T15:13:06.602Z,13.50
2018-11-14T15:15:35.745Z,13.50
2018-11-14T15:18:04.901Z,13.40
2018-11-14T15:20:33.910Z,13.40
2018-11-14T15:23:03.114Z,13.30
2018-11-14T15:25:32.096Z,13.30
2018-11-14T15:28:01.270Z,13.30
2018-11-14T15:30:31.106Z,13.30
2018-11-14T15:33:00.284Z,13.20
2018-11-14T15:35:29.411Z,13.20
2018-11-14T15:37:58.477Z,13.20
2018-11-14T15:40:27.898Z,13.20
2018-11-14T15:42:57.076Z,13.20
2018-11-14T15:45:27.393Z,13.10
2018-11-14T15:47:56.554Z,13.10
2018-11-14T15:50:27.026Z,13.00
2018-11-14T15:52:56.850Z,13.00
2018-11-14T15:55:25.925Z,13.00
2018-11-14T15:57:55.069Z,12.90
2018-11-14T16:00:28.050Z,12.90
2018-11-14T16:02:57.231Z,12.80
2018-11-14T16:05:27.427Z,12.80
2018-11-14T16:07:57.758Z,12.70
2018-11-14T16:10:27.701Z,12.60
2018-11-14T16:12:56.825Z,12.60
2018-11-14T16:15:30.485Z,12.50
2018-11-14T16:17:59.661Z,12.50
2018-11-14T16:20:28.897Z,12.40
2018-11-14T16:22:58.066Z,12.40
2018-11-14T16:25:27.717Z,12.30
2018-11-14T16:27:58.001Z,12.20
2018-11-14T16:30:29.268Z,12.20
2018-11-14T16:32:59.718Z,12.10
2018-11-14T16:35:28.989Z,12.10
2018-11-14T16:37:58.129Z,12.00
2018-11-14T16:40:29.661Z,12.00
2018-11-14T16:43:00.617Z,11.90
2018-11-14T16:45:30.783Z,11.90
2018-11-14T16:48:00.445Z,11.80
2018-11-14T16:50:34.865Z,11.80
2018-11-14T16:53:08.731Z,11.70
2018-11-14T16:55:39.765Z,11.70
2018-11-14T16:58:09.475Z,11.60
2018-11-14T17:00:39.341Z,11.50
2018-11-14T17:03:09.151Z,11.50
2018-11-14T17:05:38.523Z,11.40
2018-11-14T17:08:08.344Z,11.40
2018-11-14T17:10:38.261Z,11.40
2018-11-14T17:13:07.443Z,11.30
2018-11-14T17:15:36.621Z,11.30
2018-11-14T17:18:06.041Z,11.20
2018-11-14T17:20:35.133Z,11.20
2018-11-14T17:23:04.239Z,11.10
2018-11-14T17:25:33.288Z,11.10
2018-11-14T17:28:02.365Z,11.10
2018-11-14T17:30:31.403Z,11.00
2018-11-14T17:33:00.521Z,11.00
2018-11-14T17:35:29.548Z,10.90
2018-11-14T17:37:58.612Z,10.90
2018-11-14T17:40:28.701Z,10.90
2018-11-14T17:42:57.900Z,10.90
2018-11-14T17:45:29.173Z,10.80
2018-11-14T17:47:58.742Z,10.80
2018-11-14T17:50:29.495Z,10.80
2018-11-14T17:52:59.183Z,10.70
2018-11-14T17:55:28.449Z,10.70
2018-11-14T17:57:57.555Z,10.70
2018-11-14T18:00:27.818Z,10.60
2018-11-14T18:02:56.982Z,10.60
2018-11-14T18:05:27.246Z,10.60
2018-11-14T18:07:56.650Z,10.50
2018-11-14T18:10:27.097Z,10.50
2018-11-14T18:12:57.411Z,10.50
2018-11-14T18:15:26.502Z,10.40
2018-11-14T18:17:56.214Z,10.40
2018-11-14T18:20:27.648Z,10.40
2018-11-14T18:22:56.844Z,10.30
2018-11-14T18:25:26.144Z,10.30
2018-11-14T18:27:55.269Z,10.30
2018-11-14T18:30:26.476Z,10.20
2018-11-14T18:32:56.400Z,10.20
2018-11-14T18:35:26.113Z,10.20
2018-11-14T18:37:56.105Z,10.10
2018-11-14T18:40:27.674Z,10.10
2018-11-14T18:42:56.798Z,10.10
2018-11-14T18:45:27.518Z,10.10
2018-11-14T18:47:57.260Z,10.10
2018-11-14T18:50:26.820Z,10.10
2018-11-14T18:52:55.952Z,10.00
2018-11-14T18:55:27.374Z,10.10
2018-11-14T18:57:57.044Z,10.00
2018-11-14T19:00:27.286Z,10.00
2018-11-14T19:02:56.498Z,10.00
2018-11-14T19:05:25.620Z,10.00
2018-11-14T19:07:54.890Z,9.90
2018-11-14T19:10:25.523Z,10.00
2018-11-14T19:12:54.723Z,9.90
2018-11-14T19:15:28.140Z,9.90
2018-11-14T19:17:57.110Z,9.80
2018-11-14T19:20:27.416Z,9.80
2018-11-14T19:22:57.243Z,9.80
2018-11-14T19:25:28.816Z,9.80
2018-11-14T19:27:57.830Z,9.80
2018-11-14T19:30:31.041Z,9.70
2018-11-14T19:33:00.686Z,9.70
2018-11-14T19:35:29.918Z,9.60
2018-11-14T19:37:59.512Z,9.60
2018-11-14T19:40:32.762Z,9.60
2018-11-14T19:43:02.700Z,9.50
2018-11-14T19:45:33.242Z,9.50
2018-11-14T19:48:02.361Z,9.50
2018-11-14T19:50:31.453Z,9.40
2018-11-14T19:53:00.421Z,9.40
2018-11-14T19:55:30.114Z,9.30
2018-11-14T19:58:00.426Z,9.30
2018-11-14T20:00:30.808Z,9.30
2018-11-14T20:03:00.990Z,9.20
2018-11-14T20:05:30.028Z,9.20
2018-11-14T20:07:59.100Z,9.20
2018-11-14T20:10:30.575Z,9.10
2018-11-14T20:12:59.637Z,9.10
2018-11-14T20:15:31.188Z,9.10
2018-11-14T20:18:00.310Z,9.00
2018-11-14T20:20:31.844Z,9.00
2018-11-14T20:23:01.040Z,9.00
2018-11-14T20:25:30.214Z,9.00
2018-11-14T20:27:59.309Z,8.90
2018-11-14T20:30:29.623Z,8.90
2018-11-14T20:33:00.186Z,8.80
2018-11-14T20:35:29.573Z,8.80
2018-11-14T20:37:58.685Z,8.80
2018-11-14T20:40:28.031Z,8.80
2018-11-14T20:42:57.441Z,8.80
2018-11-14T20:45:29.041Z,8.70
2018-11-14T20:47:58.153Z,8.70
2018-11-14T20:50:27.809Z,8.70
2018-11-14T20:52:59.499Z,8.60
2018-11-14T20:55:28.993Z,8.60
2018-11-14T20:57:58.406Z,8.60
2018-11-14T21:00:28.821Z,8.60
2018-11-14T21:02:57.936Z,8.60
2018-11-14T21:05:27.565Z,8.50
2018-11-14T21:07:56.574Z,8.50
2018-11-14T21:10:27.177Z,8.50
2018-11-14T21:12:56.552Z,8.50
2018-11-14T21:15:26.939Z,8.50
2018-11-14T21:17:57.027Z,8.50
2018-11-14T21:20:26.074Z,8.50
2018-11-14T21:22:55.099Z,8.40
2018-11-14T21:25:25.105Z,8.40
2018-11-14T21:27:54.914Z,8.40
2018-11-14T21:30:25.338Z,8.40
2018-11-14T21:32:54.524Z,8.40
2018-11-14T21:35:29.157Z,8.30
2018-11-14T21:37:59.396Z,8.40
2018-11-14T21:40:28.693Z,8.30
2018-11-14T21:42:57.667Z,8.30
2018-11-14T21:45:27.602Z,8.30
2018-11-14T21:48:02.153Z,8.30
2018-11-14T21:50:31.798Z,8.30
2018-11-14T21:53:00.876Z,8.20
2018-11-14T21:55:29.852Z,8.20
2018-11-14T21:57:58.960Z,8.20
2018-11-14T22:00:35.148Z,8.20
2018-11-14T22:03:04.874Z,8.20
2018-11-14T22:05:34.410Z,8.20
2018-11-14T22:08:03.538Z,8.20
2018-11-14T22:10:32.542Z,8.20
2018-11-14T22:13:01.536Z,8.10
2018-11-14T22:15:31.052Z,8.20
2018-11-14T22:18:00.171Z,8.10
2018-11-14T22:20:29.851Z,8.20
2018-11-14T22:22:58.859Z,8.10
2018-11-14T22:25:28.978Z,8.10
2018-11-14T22:27:58.299Z,8.10
2018-11-14T22:30:28.494Z,8.10
2018-11-14T22:32:57.574Z,8.10
2018-11-14T22:35:27.668Z,8.00
2018-11-14T22:37:56.937Z,8.00
2018-11-14T22:40:27.224Z,8.00
2018-11-14T22:42:56.244Z,8.00
2018-11-14T22:45:29.632Z,8.00
2018-11-14T22:47:58.741Z,8.00
2018-11-14T22:50:28.010Z,8.00
2018-11-14T22:52:57.025Z,8.00
2018-11-14T22:55:26.526Z,8.00
2018-11-14T22:57:55.953Z,8.00
2018-11-14T23:00:31.887Z,8.00
2018-11-14T23:03:02.305Z,7.90
2018-11-14T23:05:31.325Z,8.00
2018-11-14T23:08:00.812Z,7.90
2018-11-14T23:10:29.995Z,7.90
2018-11-14T23:12:58.993Z,7.90
2018-11-14T23:15:28.166Z,7.90
2018-11-14T23:17:57.207Z,7.90
2018-11-14T23:20:26.281Z,7.90
2018-11-14T23:22:55.732Z,7.80
2018-11-14T23:25:24.996Z,7.80
2018-11-14T23:27:55.130Z,7.80
2018-11-14T23:30:25.413Z,7.80
2018-11-14T23:32:55.323Z,7.80
2018-11-14T23:35:25.561Z,7.80
2018-11-14T23:37:55.879Z,7.80
2018-11-14T23:40:25.107Z,7.80
2018-11-14T23:42:54.260Z,7.80
2018-11-14T23:45:24.077Z,7.80
2018-11-14T23:47:53.238Z,7.80
2018-11-14T23:50:24.447Z,7.80
2018-11-14T23:52:54.536Z,7.80
2018-11-14T23:55:24.368Z,7.80
2018-11-14T23:57:54.096Z,7.70
